Time;durP1;ratioP1;P1;durP2;ratioP2;P2;SDS_P1;SDS_P2;PMS_P1;PMS_P2;Temp;Humidity;BMP_temperature;BMP_pressure;BME280_temperature;BME280_humidity;BME280_pressure;Samples;Min_cycle;Max_cycle;Signal;HPM_P1;HPM_P2
2021/10/02 00:01:31;;;;;;;12.57;4.30;;;;;;;-145.18;0.00;102943.50;5018439;28;20025;-67
2021/10/02 00:33:35;;;;;;;12.27;4.40;;;;;;;-145.18;0.00;102943.50;4959603;28;20077;-68
2021/10/02 00:37:41;;;;;;;12.40;5.23;;;;;;;-145.18;0.00;102943.50;4962865;28;20113;-68
2021/10/02 00:45:53;;;;;;;11.17;4.63;;;;;;;-145.18;0.00;102943.50;4990557;28;20521;-68
2021/10/02 00:48:19;;;;;;;11.93;4.80;;;;;;;-145.18;0.00;102943.50;4997478;28;20457;-68
2021/10/02 00:50:46;;;;;;;10.20;4.67;;;;;;;-145.18;0.00;102943.50;4988748;28;20117;-68
2021/10/02 00:53:13;;;;;;;9.00;4.60;;;;;;;-145.18;0.00;102943.50;4996583;28;20088;-68
2021/10/02 00:55:38;;;;;;;9.93;4.23;;;;;;;-145.18;0.00;102943.50;4998047;28;20029;-68
2021/10/02 00:58:04;;;;;;;8.47;4.83;;;;;;;-145.18;0.00;102943.50;4997597;28;20032;-68
2021/10/02 01:00:30;;;;;;;8.30;4.40;;;;;;;-145.18;0.00;102943.50;4997282;28;20087;-70
2021/10/02 01:03:15;;;;;;;11.20;4.70;;;;;;;-145.18;0.00;102943.50;4993407;28;20058;-70
2021/10/02 01:05:58;;;;;;;9.20;4.47;;;;;;;-145.18;0.00;102943.50;4997935;28;20372;-70
2021/10/02 01:08:46;;;;;;;11.73;4.37;;;;;;;-145.18;0.00;102943.50;4997729;28;20033;-70
2021/10/02 01:11:55;;;;;;;9.33;4.20;;;;;;;-145.18;0.00;102943.50;4988660;28;20218;-70
2021/10/02 01:14:43;;;;;;;11.57;5.37;;;;;;;-145.18;0.00;102943.50;4995230;28;20332;-69
2021/10/02 01:17:21;;;;;;;11.90;5.10;;;;;;;-145.18;0.00;102943.50;4997799;28;20117;-69
2021/10/02 01:20:10;;;;;;;15.27;5.67;;;;;;;-145.18;0.00;102943.50;5031323;28;20119;-69
2021/10/02 01:23:11;;;;;;;10.10;4.90;;;;;;;-145.18;0.00;102943.50;5075695;28;20028;-69
2021/10/02 01:26:12;;;;;;;10.10;5.03;;;;;;;-145.18;0.00;102943.50;5072122;28;20043;-69
2021/10/02 01:28:39;;;;;;;9.73;4.60;;;;;;;-145.18;0.00;102943.50;5071606;28;20165;-69
2021/10/02 01:31:18;;;;;;;11.53;5.27;;;;;;;-145.18;0.00;102943.50;5079049;28;20189;-69
2021/10/02 01:33:59;;;;;;;10.50;5.20;;;;;;;-145.18;0.00;102943.50;5064761;28;20067;-69
2021/10/02 01:37:16;;;;;;;13.20;5.45;;;;;;;-145.18;0.00;102943.50;5080289;28;20032;-69
2021/10/02 01:47:52;;;;;;;13.97;6.30;;;;;;;-145.18;0.00;102943.50;5068111;28;20466;-69
2021/10/02 01:50:34;;;;;;;11.17;5.87;;;;;;;-145.18;0.00;102943.50;5077314;28;20164;-69
2021/10/02 01:53:03;;;;;;;13.90;6.03;;;;;;;-145.18;0.00;102943.50;5076184;28;20264;-70
2021/10/02 01:55:30;;;;;;;12.50;6.17;;;;;;;-145.18;0.00;102943.50;5079148;28;20054;-69
2021/10/02 01:58:03;;;;;;;12.00;6.27;;;;;;;-145.18;0.00;102943.50;5076816;28;20043;-69
2021/10/02 02:00:30;;;;;;;14.90;6.73;;;;;;;-145.18;0.00;102943.50;5069267;28;20565;-69
2021/10/02 02:03:00;;;;;;;11.90;6.43;;;;;;;-145.18;0.00;102943.50;5072657;28;20072;-69
2021/10/02 02:05:28;;;;;;;14.03;6.67;;;;;;;-145.18;0.00;102943.50;5075392;28;20508;-69
2021/10/02 02:07:57;;;;;;;16.27;6.87;;;;;;;-145.18;0.00;102943.50;5077634;28;20199;-69
2021/10/02 02:10:24;;;;;;;12.57;6.93;;;;;;;-145.18;0.00;102943.50;5079639;28;20023;-69
2021/10/02 02:12:52;;;;;;;14.60;7.60;;;;;;;-145.18;0.00;102943.50;5079050;28;20038;-73
2021/10/02 02:15:18;;;;;;;19.27;8.23;;;;;;;-145.18;0.00;102943.50;5078913;28;20019;-70
2021/10/02 02:17:46;;;;;;;19.13;8.30;;;;;;;-145.18;0.00;102943.50;5078870;28;20439;-69
2021/10/02 02:20:20;;;;;;;17.77;7.93;;;;;;;-145.18;0.00;102943.50;5067975;28;20034;-69
2021/10/02 02:22:47;;;;;;;15.53;8.03;;;;;;;-145.18;0.00;102943.50;5077757;28;20031;-69
2021/10/02 02:25:13;;;;;;;19.60;8.77;;;;;;;-145.18;0.00;102943.50;5069326;28;20028;-70
2021/10/02 02:27:38;;;;;;;22.00;9.57;;;;;;;-145.18;0.00;102943.50;5068893;28;20026;-73
2021/10/02 02:30:07;;;;;;;18.17;8.63;;;;;;;-145.18;0.00;102943.50;5079916;28;20504;-70
2021/10/02 02:32:34;;;;;;;16.63;7.47;;;;;;;-145.18;0.00;102943.50;5079055;28;20074;-70
2021/10/02 02:35:00;;;;;;;20.33;8.20;;;;;;;-145.18;0.00;102943.50;5073668;28;20085;-70
2021/10/02 02:37:26;;;;;;;17.73;8.83;;;;;;;-145.18;0.00;102943.50;5079354;28;20031;-70
2021/10/02 02:39:51;;;;;;;20.60;8.57;;;;;;;-145.18;0.00;102943.50;5070636;28;20065;-70
2021/10/02 02:42:17;;;;;;;21.80;8.03;;;;;;;-145.18;0.00;102943.50;5079467;28;20067;-70
2021/10/02 02:44:42;;;;;;;21.37;8.77;;;;;;;-145.18;0.00;102943.50;5079059;28;20039;-70
2021/10/02 02:47:14;;;;;;;20.83;8.73;;;;;;;-145.18;0.00;102943.50;5080229;28;20026;-70
2021/10/02 02:50:11;;;;;;;25.77;9.13;;;;;;;-145.18;0.00;102943.50;5078548;28;20066;-70
2021/10/02 02:53:01;;;;;;;22.90;8.77;;;;;;;-145.18;0.00;102943.50;5019655;28;20444;-71
2021/10/02 02:55:31;;;;;;;22.37;9.17;;;;;;;-145.18;0.00;102943.50;5036450;28;20048;-70
2021/10/02 02:58:01;;;;;;;20.17;9.10;;;;;;;-145.18;0.00;102943.50;5038035;28;20194;-70
2021/10/02 03:00:27;;;;;;;23.87;10.07;;;;;;;-145.18;0.00;102943.50;5040280;28;20197;-70
2021/10/02 03:03:12;;;;;;;18.17;8.30;;;;;;;-145.18;0.00;102943.50;5034856;28;20044;-70
2021/10/02 03:05:40;;;;;;;21.47;9.50;;;;;;;-145.18;0.00;102943.50;5032948;28;20021;-70
2021/10/02 03:08:17;;;;;;;20.87;9.20;;;;;;;-145.18;0.00;102943.50;5038427;28;20433;-70
2021/10/02 03:10:47;;;;;;;23.33;10.77;;;;;;;-145.18;0.00;102943.50;5039773;28;20551;-70
2021/10/02 03:13:16;;;;;;;22.37;9.13;;;;;;;-145.18;0.00;102943.50;5030677;28;20401;-71
2021/10/02 03:15:43;;;;;;;21.53;9.33;;;;;;;-145.18;0.00;102943.50;5039599;28;20309;-70
2021/10/02 03:18:11;;;;;;;20.97;9.73;;;;;;;-145.18;0.00;102943.50;5034975;28;20109;-70
2021/10/02 03:20:38;;;;;;;23.20;9.70;;;;;;;-145.18;0.00;102943.50;5030656;28;20056;-70
2021/10/02 03:23:04;;;;;;;27.03;9.83;;;;;;;-145.18;0.00;102943.50;5035287;28;20043;-71
2021/10/02 03:25:32;;;;;;;24.47;10.27;;;;;;;-145.18;0.00;102943.50;5031048;28;20033;-71
2021/10/02 03:28:00;;;;;;;22.57;10.37;;;;;;;-145.18;0.00;102943.50;5058016;28;20055;-70
2021/10/02 03:30:27;;;;;;;22.27;10.20;;;;;;;-145.18;0.00;102943.50;5075283;28;20054;-70
2021/10/02 03:32:53;;;;;;;23.77;9.90;;;;;;;-145.18;0.00;102943.50;5075494;28;20301;-70
2021/10/02 03:35:19;;;;;;;32.03;11.90;;;;;;;-145.18;0.00;102943.50;5077321;28;20377;-70
2021/10/02 03:37:46;;;;;;;24.77;10.43;;;;;;;-145.18;0.00;102943.50;5082236;28;20026;-71
2021/10/02 03:40:13;;;;;;;24.40;10.23;;;;;;;-145.18;0.00;102943.50;5082465;28;20504;-70
2021/10/02 03:43:00;;;;;;;24.23;10.90;;;;;;;-145.18;0.00;102943.50;5082258;28;20031;-71
2021/10/02 03:45:27;;;;;;;23.33;9.33;;;;;;;-145.18;0.00;102943.50;5080292;28;20032;-71
2021/10/02 03:47:53;;;;;;;25.27;10.07;;;;;;;-145.18;0.00;102943.50;5083907;28;20104;-71
2021/10/02 03:50:22;;;;;;;26.90;10.40;;;;;;;-145.18;0.00;102943.50;5084097;28;20106;-73
2021/10/02 03:52:48;;;;;;;25.97;10.77;;;;;;;-145.18;0.00;102943.50;5082294;28;20039;-72
2021/10/02 03:55:15;;;;;;;33.77;11.47;;;;;;;-145.18;0.00;102943.50;5082452;28;20277;-71
2021/10/02 03:57:42;;;;;;;25.23;10.40;;;;;;;-145.18;0.00;102943.50;5077932;28;20523;-71
2021/10/02 04:00:12;;;;;;;25.17;10.53;;;;;;;-145.18;0.00;102943.50;5082096;28;20135;-71
2021/10/02 04:02:44;;;;;;;24.07;11.03;;;;;;;-145.18;0.00;102943.50;5084516;28;20048;-72
2021/10/02 04:05:10;;;;;;;23.67;10.80;;;;;;;-145.18;0.00;102943.50;5084491;28;20329;-68
2021/10/02 04:07:36;;;;;;;23.30;9.93;;;;;;;-145.18;0.00;102943.50;5082799;28;20063;-68
2021/10/02 04:10:05;;;;;;;22.00;10.17;;;;;;;-145.18;0.00;102943.50;5077428;28;20024;-69
2021/10/02 04:12:30;;;;;;;23.63;10.20;;;;;;;-145.18;0.00;102943.50;5082819;28;20020;-69
2021/10/02 04:14:56;;;;;;;25.50;9.60;;;;;;;-145.18;0.00;102943.50;5081980;28;20451;-69
2021/10/02 04:17:21;;;;;;;26.83;10.33;;;;;;;-145.18;0.00;102943.50;5082099;28;20031;-69
2021/10/02 04:19:47;;;;;;;24.50;10.60;;;;;;;-145.18;0.00;102943.50;5076472;28;20028;-68
2021/10/02 04:22:12;;;;;;;19.50;8.87;;;;;;;-145.18;0.00;102943.50;5081766;28;20071;-68
2021/10/02 04:24:42;;;;;;;20.87;9.47;;;;;;;-145.18;0.00;102943.50;5082386;28;20097;-69
2021/10/02 04:27:09;;;;;;;21.17;8.83;;;;;;;-145.18;0.00;102943.50;5082995;28;20365;-69
2021/10/02 04:29:35;;;;;;;24.73;10.43;;;;;;;-145.18;0.00;102943.50;5075400;28;20088;-69
2021/10/02 04:32:01;;;;;;;21.60;9.77;;;;;;;-145.18;0.00;102943.50;5082921;28;20024;-68
2021/10/02 04:34:26;;;;;;;19.70;9.47;;;;;;;-145.18;0.00;102943.50;5080803;28;20078;-69
2021/10/02 04:36:52;;;;;;;20.40;9.53;;;;;;;-145.18;0.00;102943.50;5081881;28;20161;-69
2021/10/02 04:39:18;;;;;;;18.90;8.23;;;;;;;-145.18;0.00;102943.50;5070499;28;20024;-68
2021/10/02 04:41:43;;;;;;;19.10;9.07;;;;;;;-145.18;0.00;102943.50;5082025;28;20076;-68
2021/10/02 04:44:09;;;;;;;19.87;9.73;;;;;;;-145.18;0.00;102943.50;5078657;28;20024;-68
2021/10/02 04:46:34;;;;;;;22.23;9.60;;;;;;;-145.18;0.00;102943.50;5080981;28;20032;-68
2021/10/02 04:49:00;;;;;;;19.97;9.40;;;;;;;-145.18;0.00;102943.50;5075464;28;20092;-68
2021/10/02 04:51:26;;;;;;;19.20;9.13;;;;;;;-145.18;0.00;102943.50;5078043;28;20032;-69
2021/10/02 04:53:51;;;;;;;20.87;9.60;;;;;;;-145.18;0.00;102943.50;5079025;28;20153;-68
2021/10/02 04:56:19;;;;;;;20.63;9.40;;;;;;;-145.18;0.00;102943.50;5080935;28;20090;-69
2021/10/02 04:58:45;;;;;;;19.23;9.37;;;;;;;-145.18;0.00;102943.50;5080454;28;20028;-68
2021/10/02 05:01:10;;;;;;;20.00;9.47;;;;;;;-145.18;0.00;102943.50;5080680;28;20655;-68
2021/10/02 05:03:37;;;;;;;20.00;9.67;;;;;;;-145.18;0.00;102943.50;5071994;28;20266;-68
2021/10/02 05:06:04;;;;;;;19.53;9.20;;;;;;;-145.18;0.00;102943.50;5077970;28;20377;-68
2021/10/02 05:08:30;;;;;;;19.60;10.00;;;;;;;-145.18;0.00;102943.50;5073350;28;20110;-68
2021/10/02 05:10:56;;;;;;;17.93;9.60;;;;;;;-145.18;0.00;102943.50;5075982;28;20416;-68
2021/10/02 05:13:21;;;;;;;18.00;9.77;;;;;;;-145.18;0.00;102943.50;5074421;28;20035;-69
2021/10/02 05:15:47;;;;;;;19.77;9.17;;;;;;;-145.18;0.00;102943.50;5075884;28;20046;-69
2021/10/02 05:18:12;;;;;;;18.23;8.57;;;;;;;-145.18;0.00;102943.50;5074714;28;20515;-68
2021/10/02 05:20:38;;;;;;;19.50;9.20;;;;;;;-145.18;0.00;102943.50;5075316;28;20157;-68
2021/10/02 05:23:04;;;;;;;18.70;9.80;;;;;;;-145.18;0.00;102943.50;5076742;28;20358;-68
2021/10/02 05:25:29;;;;;;;19.13;8.90;;;;;;;-145.18;0.00;102943.50;5075460;28;20082;-68
2021/10/02 05:27:55;;;;;;;19.93;9.40;;;;;;;-145.18;0.00;102943.50;5077400;28;20043;-68
2021/10/02 05:30:21;;;;;;;20.20;9.60;;;;;;;-145.18;0.00;102943.50;5074018;28;20526;-68
2021/10/02 05:32:47;;;;;;;17.90;9.53;;;;;;;-145.18;0.00;102943.50;5079031;28;20059;-68
2021/10/02 05:35:13;;;;;;;18.73;9.30;;;;;;;-145.18;0.00;102943.50;5074897;28;20438;-68
2021/10/02 05:37:38;;;;;;;19.80;9.77;;;;;;;-145.18;0.00;102943.50;5079135;28;20547;-69
2021/10/02 05:40:04;;;;;;;18.20;9.03;;;;;;;-145.18;0.00;102943.50;5072321;28;20032;-69
2021/10/02 05:42:30;;;;;;;20.73;9.20;;;;;;;-145.18;0.00;102943.50;5079372;28;20059;-68
2021/10/02 05:44:55;;;;;;;18.40;9.27;;;;;;;-145.18;0.00;102943.50;5076877;28;20096;-68
2021/10/02 05:47:21;;;;;;;24.23;10.03;;;;;;;-145.18;0.00;102943.50;5080054;28;20553;-68
2021/10/02 05:49:46;;;;;;;17.77;8.30;;;;;;;-145.18;0.00;102943.50;5072156;28;20020;-68
2021/10/02 05:52:12;;;;;;;15.80;8.03;;;;;;;-145.18;0.00;102943.50;5079742;28;20088;-68
2021/10/02 05:54:38;;;;;;;18.97;8.57;;;;;;;-145.18;0.00;102943.50;5077670;28;20409;-68
2021/10/02 05:57:04;;;;;;;15.67;8.23;;;;;;;-145.18;0.00;102943.50;5079869;28;20051;-68
2021/10/02 05:59:29;;;;;;;17.30;7.97;;;;;;;-145.18;0.00;102943.50;5074275;28;20441;-68
2021/10/02 06:01:55;;;;;;;16.27;8.90;;;;;;;-145.18;0.00;102943.50;5078985;28;20141;-68
2021/10/02 06:04:20;;;;;;;17.83;8.87;;;;;;;-145.18;0.00;102943.50;5066309;28;20059;-68
2021/10/02 06:06:46;;;;;;;17.87;8.70;;;;;;;-145.18;0.00;102943.50;5079153;28;20176;-68
2021/10/02 06:09:12;;;;;;;16.53;8.50;;;;;;;-145.18;0.00;102943.50;5066816;28;20032;-68
2021/10/02 06:11:37;;;;;;;16.90;9.37;;;;;;;-145.18;0.00;102943.50;5078604;28;20416;-68
2021/10/02 06:14:03;;;;;;;17.07;9.23;;;;;;;-145.18;0.00;102943.50;5068150;28;20110;-68
2021/10/02 06:16:28;;;;;;;18.83;8.60;;;;;;;-145.18;0.00;102943.50;5078807;28;20597;-68
2021/10/02 06:18:54;;;;;;;17.63;9.40;;;;;;;-145.18;0.00;102943.50;5071578;28;20069;-68
2021/10/02 06:21:19;;;;;;;15.50;8.17;;;;;;;-145.18;0.00;102943.50;5078294;28;20031;-68
2021/10/02 06:23:45;;;;;;;15.80;8.30;;;;;;;-145.18;0.00;102943.50;5070279;28;20141;-68
2021/10/02 06:26:11;;;;;;;17.50;8.33;;;;;;;-145.18;0.00;102943.50;5063373;28;20086;-68
2021/10/02 06:28:36;;;;;;;15.17;8.40;;;;;;;-145.18;0.00;102943.50;5071770;28;20024;-68
2021/10/02 06:31:05;;;;;;;17.57;8.83;;;;;;;-145.18;0.00;102943.50;5074667;28;20031;-68
2021/10/02 06:33:32;;;;;;;17.87;9.23;;;;;;;-145.18;0.00;102943.50;5075011;28;20232;-68
2021/10/02 06:35:58;;;;;;;21.00;8.93;;;;;;;-145.18;0.00;102943.50;5074708;28;20081;-68
2021/10/02 06:38:23;;;;;;;16.53;8.83;;;;;;;-145.18;0.00;102943.50;5065990;28;20091;-68
2021/10/02 06:40:50;;;;;;;15.17;8.17;;;;;;;-145.18;0.00;102943.50;5069301;28;20037;-69
2021/10/02 06:43:15;;;;;;;17.07;8.30;;;;;;;-145.18;0.00;102943.50;5072567;28;20027;-68
2021/10/02 06:45:41;;;;;;;14.90;8.40;;;;;;;-145.18;0.00;102943.50;5069450;28;20184;-68
2021/10/02 06:48:06;;;;;;;17.33;8.53;;;;;;;-145.18;0.00;102943.50;5073863;28;20099;-68
2021/10/02 06:50:33;;;;;;;16.87;8.03;;;;;;;-145.18;0.00;102943.50;5073985;28;20032;-68
2021/10/02 06:53:01;;;;;;;14.53;7.93;;;;;;;-145.18;0.00;102943.50;5064334;28;20039;-68
2021/10/02 06:55:26;;;;;;;17.63;7.93;;;;;;;-145.18;0.00;102943.50;5060847;28;20421;-68
2021/10/02 06:57:52;;;;;;;17.67;8.47;;;;;;;-145.18;0.00;102943.50;5059218;28;20024;-68
2021/10/02 07:00:18;;;;;;;17.30;8.50;;;;;;;-145.18;0.00;102943.50;5071594;28;20081;-68
2021/10/02 07:02:45;;;;;;;14.53;8.23;;;;;;;-145.18;0.00;102943.50;5062310;28;20136;-68
2021/10/02 07:05:16;;;;;;;15.57;7.97;;;;;;;-145.18;0.00;102943.50;5075581;28;20105;-68
2021/10/02 07:07:42;;;;;;;16.23;8.20;;;;;;;-145.18;0.00;102943.50;5075919;28;20028;-68
2021/10/02 07:10:10;;;;;;;15.07;8.17;;;;;;;-145.18;0.00;102943.50;5070739;28;20426;-68
2021/10/02 07:12:37;;;;;;;13.73;7.70;;;;;;;-145.18;0.00;102943.50;5072213;28;20036;-68
2021/10/02 07:15:04;;;;;;;17.37;7.77;;;;;;;-145.18;0.00;102943.50;5075316;28;20043;-68
2021/10/02 07:17:30;;;;;;;15.10;8.00;;;;;;;-145.18;0.00;102943.50;5076288;28;20503;-68
2021/10/02 07:19:56;;;;;;;18.67;8.70;;;;;;;-145.18;0.00;102943.50;5071705;28;20040;-68
2021/10/02 07:22:22;;;;;;;18.17;8.40;;;;;;;-145.18;0.00;102943.50;5075210;28;20512;-68
2021/10/02 07:24:48;;;;;;;16.63;8.00;;;;;;;-145.18;0.00;102943.50;5075239;28;20474;-68
2021/10/02 07:27:15;;;;;;;15.67;8.10;;;;;;;-145.18;0.00;102943.50;5069279;28;20174;-68
2021/10/02 07:29:41;;;;;;;17.97;8.27;;;;;;;-145.18;0.00;102943.50;5073643;28;20036;-69
2021/10/02 07:32:07;;;;;;;15.80;7.90;;;;;;;-145.18;0.00;102943.50;5075792;28;20203;-68
2021/10/02 07:34:35;;;;;;;15.37;8.33;;;;;;;-145.18;0.00;102943.50;5070061;28;20031;-68
2021/10/02 07:37:00;;;;;;;16.67;7.70;;;;;;;-145.18;0.00;102943.50;5076190;28;20268;-68
2021/10/02 07:39:27;;;;;;;17.13;8.93;;;;;;;-145.18;0.00;102943.50;5066465;28;20032;-68
2021/10/02 07:41:54;;;;;;;16.63;8.17;;;;;;;-145.18;0.00;102943.50;5073139;28;20657;-68
2021/10/02 07:44:28;;;;;;;15.23;8.23;;;;;;;-145.18;0.00;102943.50;5078888;28;20062;-68
2021/10/02 07:46:55;;;;;;;15.87;7.77;;;;;;;-145.18;0.00;102943.50;5070648;28;20349;-68
2021/10/02 07:49:23;;;;;;;14.47;7.47;;;;;;;-145.18;0.00;102943.50;5068825;28;20038;-69
2021/10/02 07:51:50;;;;;;;19.93;8.60;;;;;;;-145.18;0.00;102943.50;5073659;28;20038;-68
2021/10/02 07:54:18;;;;;;;16.57;7.50;;;;;;;-145.18;0.00;102943.50;5075261;28;20048;-68
2021/10/02 07:56:44;;;;;;;14.80;8.00;;;;;;;-145.18;0.00;102943.50;5074845;28;20089;-68
2021/10/02 07:59:14;;;;;;;16.90;8.47;;;;;;;-145.18;0.00;102943.50;5075681;28;20580;-68
2021/10/02 08:01:39;;;;;;;15.50;7.47;;;;;;;-145.18;0.00;102943.50;5074457;28;20114;-68
2021/10/02 08:04:07;;;;;;;13.77;7.53;;;;;;;-145.18;0.00;102943.50;5071724;28;20614;-68
2021/10/02 08:06:34;;;;;;;16.57;7.87;;;;;;;-145.18;0.00;102943.50;5070616;28;20031;-68
2021/10/02 08:08:59;;;;;;;15.30;7.63;;;;;;;-145.18;0.00;102943.50;5073807;28;20497;-68
2021/10/02 08:11:27;;;;;;;17.27;8.30;;;;;;;-145.18;0.00;102943.50;5077226;28;20356;-68
2021/10/02 08:13:53;;;;;;;17.33;8.43;;;;;;;-145.18;0.00;102943.50;5072906;28;20459;-68
2021/10/02 08:16:20;;;;;;;16.00;8.13;;;;;;;-145.18;0.00;102943.50;5076340;28;20031;-68
2021/10/02 08:18:48;;;;;;;16.00;8.33;;;;;;;-145.18;0.00;102943.50;5074229;28;20263;-68
2021/10/02 08:21:14;;;;;;;15.03;7.80;;;;;;;-145.18;0.00;102943.50;5075551;28;20031;-68
2021/10/02 08:23:41;;;;;;;18.77;8.30;;;;;;;-145.18;0.00;102943.50;5068697;28;20279;-68
2021/10/02 08:26:07;;;;;;;21.93;8.17;;;;;;;-145.18;0.00;102943.50;5076859;28;20040;-68
2021/10/02 08:28:33;;;;;;;13.97;7.77;;;;;;;-145.18;0.00;102943.50;5073870;28;20020;-68
2021/10/02 08:31:01;;;;;;;11.63;6.63;;;;;;;-145.18;0.00;102943.50;5075274;28;20034;-68
2021/10/02 08:33:27;;;;;;;15.80;7.80;;;;;;;-145.18;0.00;102943.50;5067282;28;20201;-68
2021/10/02 08:35:52;;;;;;;14.13;7.70;;;;;;;-145.18;0.00;102943.50;5077328;28;20024;-68
2021/10/02 08:38:18;;;;;;;15.10;8.03;;;;;;;-145.18;0.00;102943.50;5073378;28;20031;-68
2021/10/02 08:40:45;;;;;;;15.03;7.83;;;;;;;-145.18;0.00;102943.50;5078532;28;20028;-68
2021/10/02 08:43:12;;;;;;;14.13;7.70;;;;;;;-145.18;0.00;102943.50;5075395;28;20039;-68
2021/10/02 08:45:38;;;;;;;16.97;8.17;;;;;;;-145.18;0.00;102943.50;5076543;28;20036;-68
2021/10/02 08:48:05;;;;;;;12.30;6.73;;;;;;;-145.18;0.00;102943.50;5074901;28;20420;-68
2021/10/02 08:50:31;;;;;;;14.67;8.87;;;;;;;-145.18;0.00;102943.50;5075086;28;20028;-73
2021/10/02 08:52:59;;;;;;;17.97;8.67;;;;;;;-145.18;0.00;102943.50;5072301;28;20032;-68
2021/10/02 08:55:27;;;;;;;16.67;9.23;;;;;;;-145.18;0.00;102943.50;5069789;28;20480;-68
2021/10/02 08:57:53;;;;;;;16.40;8.57;;;;;;;-145.18;0.00;102943.50;5068585;28;20024;-68
2021/10/02 09:00:22;;;;;;;19.13;8.50;;;;;;;-145.18;0.00;102943.50;5071852;28;20032;-68
2021/10/02 09:02:49;;;;;;;13.57;7.97;;;;;;;-145.18;0.00;102943.50;5072999;28;20686;-68
2021/10/02 09:05:17;;;;;;;15.10;8.20;;;;;;;-145.18;0.00;102943.50;5069302;28;20503;-68
2021/10/02 09:07:43;;;;;;;16.63;8.63;;;;;;;-145.18;0.00;102943.50;5068961;28;20440;-69
2021/10/02 09:10:11;;;;;;;17.10;8.77;;;;;;;-145.18;0.00;102943.50;5068107;28;20303;-68
2021/10/02 09:12:40;;;;;;;13.83;8.10;;;;;;;-145.18;0.00;102943.50;5072513;28;20430;-72
2021/10/02 09:15:07;;;;;;;15.30;7.60;;;;;;;-145.18;0.00;102943.50;5071255;28;20048;-69
2021/10/02 09:17:34;;;;;;;15.73;7.90;;;;;;;-145.18;0.00;102943.50;5069152;28;20023;-68
2021/10/02 09:20:00;;;;;;;14.43;7.70;;;;;;;-145.18;0.00;102943.50;5076667;28;20040;-68
2021/10/02 09:22:27;;;;;;;10.23;5.53;;;;;;;-145.18;0.00;102943.50;5078537;28;20044;-68
2021/10/02 09:24:55;;;;;;;10.83;5.03;;;;;;;-145.18;0.00;102943.50;5077542;28;20097;-68
2021/10/02 09:27:25;;;;;;;10.60;5.87;;;;;;;-145.18;0.00;102943.50;5077581;28;20038;-68
2021/10/02 09:30:13;;;;;;;13.53;5.57;;;;;;;-145.18;0.00;102943.50;5064770;28;20032;-68
2021/10/02 09:32:43;;;;;;;12.00;6.20;;;;;;;-145.18;0.00;102943.50;5077562;28;20061;-68
2021/10/02 09:35:17;;;;;;;13.47;6.80;;;;;;;-145.18;0.00;102943.50;5066515;28;20243;-68
2021/10/02 09:37:52;;;;;;;14.03;7.37;;;;;;;-145.18;0.00;102943.50;5076312;28;20015;-69
2021/10/02 09:40:21;;;;;;;14.20;6.10;;;;;;;-145.18;0.00;102943.50;5068060;28;20024;-68
2021/10/02 09:42:53;;;;;;;11.47;6.40;;;;;;;-145.18;0.00;102943.50;5072663;28;20491;-68
2021/10/02 09:45:32;;;;;;;11.97;5.90;;;;;;;-145.18;0.00;102943.50;5076643;28;20178;-68
2021/10/02 09:48:00;;;;;;;11.57;5.70;;;;;;;-145.18;0.00;102943.50;5070894;28;20109;-69
2021/10/02 09:50:37;;;;;;;11.80;5.97;;;;;;;-145.18;0.00;102943.50;5076571;28;20772;-69
2021/10/02 09:53:17;;;;;;;9.75;5.55;;;;;;;-145.18;0.00;102943.50;5072508;28;20051;-68
2021/10/02 09:55:48;;;;;;;10.57;5.40;;;;;;;-145.18;0.00;102943.50;5074954;28;20058;-69
2021/10/02 09:58:31;;;;;;;11.50;5.82;;;;;;;-145.18;0.00;102943.50;5073485;28;20024;-68
2021/10/02 10:00:59;;;;;;;11.70;5.60;;;;;;;-145.18;0.00;102943.50;5063919;28;20035;-68
2021/10/02 10:03:26;;;;;;;11.90;5.87;;;;;;;-145.18;0.00;102943.50;5066042;28;20055;-68
2021/10/02 10:05:54;;;;;;;16.10;6.67;;;;;;;-145.18;0.00;102943.50;5077548;28;20032;-68
2021/10/02 10:08:26;;;;;;;10.23;5.60;;;;;;;-145.18;0.00;102943.50;5071950;28;20482;-69
2021/10/02 10:11:04;;;;;;;9.18;5.38;;;;;;;-145.18;0.00;102943.50;5073390;28;20043;-68
2021/10/02 10:13:29;;;;;;;11.97;5.60;;;;;;;-145.18;0.00;102943.50;5070755;28;20042;-68
2021/10/02 10:15:57;;;;;;;10.50;5.93;;;;;;;-145.18;0.00;102943.50;5072595;28;20488;-68
2021/10/02 10:18:29;;;;;;;11.63;5.83;;;;;;;-145.18;0.00;102943.50;5076289;28;20031;-68
2021/10/02 10:21:00;;;;;;;13.25;6.22;;;;;;;-145.18;0.00;102943.50;5076324;28;20024;-68
2021/10/02 10:23:43;;;;;;;12.90;6.70;;;;;;;-145.18;0.00;102943.50;5069695;28;20043;-68
2021/10/02 10:26:14;;;;;;;10.70;5.47;;;;;;;-145.18;0.00;102943.50;5076626;28;20036;-69
2021/10/02 10:28:43;;;;;;;10.20;5.20;;;;;;;-145.18;0.00;102943.50;5059965;28;20090;-68
2021/10/02 10:31:30;;;;;;;13.07;5.73;;;;;;;-145.18;0.00;102943.50;5075934;28;20031;-68
2021/10/02 10:33:57;;;;;;;9.23;4.77;;;;;;;-145.18;0.00;102943.50;5064561;28;20085;-69
2021/10/02 10:36:28;;;;;;;9.00;4.67;;;;;;;-145.18;0.00;102943.50;5076019;28;20586;-69
2021/10/02 10:38:54;;;;;;;12.40;4.87;;;;;;;-145.18;0.00;102943.50;5075784;28;20139;-68
2021/10/02 10:41:22;;;;;;;7.60;4.73;;;;;;;-145.18;0.00;102943.50;5075917;28;20038;-68
2021/10/02 10:43:49;;;;;;;7.97;4.40;;;;;;;-145.18;0.00;102943.50;5076043;28;20028;-68
2021/10/02 10:46:25;;;;;;;7.70;5.20;;;;;;;-145.18;0.00;102943.50;5075120;28;20031;-69
2021/10/02 10:48:51;;;;;;;10.50;4.30;;;;;;;-145.18;0.00;102943.50;5056488;28;20116;-68
2021/10/02 10:51:20;;;;;;;8.07;4.80;;;;;;;-145.18;0.00;102943.50;5071720;28;20623;-68
2021/10/02 10:53:50;;;;;;;8.33;4.50;;;;;;;-145.18;0.00;102943.50;5071755;28;20028;-68
2021/10/02 10:56:35;;;;;;;6.97;3.97;;;;;;;-145.18;0.00;102943.50;5070019;28;20377;-68
2021/10/02 10:59:00;;;;;;;9.90;4.87;;;;;;;-145.18;0.00;102943.50;5068833;28;20042;-69
2021/10/02 11:01:35;;;;;;;9.27;4.67;;;;;;;-145.18;0.00;102943.50;5064909;28;20542;-69
2021/10/02 11:04:01;;;;;;;7.73;4.90;;;;;;;-145.18;0.00;102943.50;5074990;28;20062;-69
2021/10/02 11:06:54;;;;;;;8.50;5.37;;;;;;;-145.18;0.00;102943.50;5063711;28;20035;-69
2021/10/02 11:09:52;;;;;;;9.60;5.03;;;;;;;-145.18;0.00;102943.50;5066411;28;20036;-69
2021/10/02 11:12:18;;;;;;;9.17;5.00;;;;;;;-145.18;0.00;102943.50;5031614;28;20107;-68
2021/10/02 11:15:09;;;;;;;7.97;4.80;;;;;;;-145.18;0.00;102943.50;5030633;28;20028;-68
2021/10/02 11:17:43;;;;;;;6.73;4.03;;;;;;;-145.18;0.00;102943.50;5033046;28;20611;-68
2021/10/02 11:20:39;;;;;;;7.77;4.03;;;;;;;-145.18;0.00;102943.50;5029679;28;20037;-68
2021/10/02 11:23:59;;;;;;;8.70;4.27;;;;;;;-145.18;0.00;102943.50;5017178;28;20067;-68
2021/10/02 11:26:37;;;;;;;7.27;4.37;;;;;;;-145.18;0.00;102943.50;4976550;28;20082;-69
2021/10/02 11:29:26;;;;;;;9.27;4.63;;;;;;;-145.18;0.00;102943.50;5020847;28;20038;-68
2021/10/02 11:32:22;;;;;;;5.63;3.40;;;;;;;-145.18;0.00;102943.50;5023080;28;20041;-69
2021/10/02 11:35:30;;;;;;;9.63;3.50;;;;;;;-145.18;0.00;102943.50;5034345;28;20611;-69
2021/10/02 11:37:59;;;;;;;8.30;3.80;;;;;;;-145.18;0.00;102943.50;5010469;28;20048;-68
2021/10/02 11:40:57;;;;;;;8.13;3.47;;;;;;;-145.18;0.00;102943.50;5031341;28;20116;-68
2021/10/02 11:43:24;;;;;;;9.90;3.70;;;;;;;-145.18;0.00;102943.50;4999126;28;20095;-68
2021/10/02 11:45:58;;;;;;;9.37;3.83;;;;;;;-145.18;0.00;102943.50;5032396;28;20039;-69
2021/10/02 11:48:34;;;;;;;6.53;3.47;;;;;;;-145.18;0.00;102943.50;5053248;28;20036;-69
2021/10/02 11:51:26;;;;;;;7.60;3.90;;;;;;;-145.18;0.00;102943.50;5075984;28;20036;-68
2021/10/02 11:53:54;;;;;;;5.53;3.00;;;;;;;-145.18;0.00;102943.50;5075198;28;20229;-68
2021/10/02 11:56:22;;;;;;;5.77;3.37;;;;;;;-145.18;0.00;102943.50;5076065;28;20034;-68
2021/10/02 11:58:57;;;;;;;5.73;2.97;;;;;;;-145.18;0.00;102943.50;5073468;28;20102;-68
2021/10/02 12:01:36;;;;;;;8.90;3.13;;;;;;;-145.18;0.00;102943.50;5068924;28;20539;-68
2021/10/02 12:04:08;;;;;;;6.00;2.60;;;;;;;-145.18;0.00;102943.50;5072723;28;20062;-68
2021/10/02 12:06:35;;;;;;;;;;;;;;;-145.18;0.00;102943.50;5066204;28;20036;-68
2021/10/02 12:09:01;;;;;;;5.97;2.87;;;;;;;-145.18;0.00;102943.50;5073168;28;19919;-68